sensor_id;sensor_type;location;lat;lon;timestamp;temperature;humidity
20839;DHT22;10580;51.092;6.828;2023-05-14T00:01:23;11.30;11.30
20839;DHT22;10580;51.092;6.828;2023-05-14T00:03:49;11.30;8.80
20839;DHT22;10580;51.092;6.828;2023-05-14T00:06:15;11.30;1.00
20839;DHT22;10580;51.092;6.828;2023-05-14T00:08:40;11.20;1.00
20839;DHT22;10580;51.092;6.828;2023-05-14T00:11:06;11.20;1.00
20839;DHT22;10580;51.092;6.828;2023-05-14T00:13:33;11.20;1.00
20839;DHT22;10580;51.092;6.828;2023-05-14T00:15:59;11.20;1.00
20839;DHT22;10580;51.092;6.828;2023-05-14T00:18:24;11.20;1.00
20839;DHT22;10580;51.092;6.828;2023-05-14T00:20:50;11.20;1.00
20839;DHT22;10580;51.092;6.828;2023-05-14T00:23:21;11.10;1.00
20839;DHT22;10580;51.092;6.828;2023-05-14T00:25:47;11.10;1.00
20839;DHT22;10580;51.092;6.828;2023-05-14T00:28:12;11.10;1.00
20839;DHT22;10580;51.092;6.828;2023-05-14T00:30:38;11.00;1.00
20839;DHT22;10580;51.092;6.828;2023-05-14T00:33:04;11.00;1.00
20839;DHT22;10580;51.092;6.828;2023-05-14T00:35:30;10.90;1.00
20839;DHT22;10580;51.092;6.828;2023-05-14T00:37:56;10.90;99.90
20839;DHT22;10580;51.092;6.828;2023-05-14T00:40:25;10.80;99.90
20839;DHT22;10580;51.092;6.828;2023-05-14T00:42:51;10.80;1.00
20839;DHT22;10580;51.092;6.828;2023-05-14T00:45:16;10.80;1.00
20839;DHT22;10580;51.092;6.828;2023-05-14T00:47:42;10.80;1.00
20839;DHT22;10580;51.092;6.828;2023-05-14T00:50:09;10.80;1.00
20839;DHT22;10580;51.092;6.828;2023-05-14T00:52:36;10.80;1.00
20839;DHT22;10580;51.092;6.828;2023-05-14T00:55:05;10.70;1.00
20839;DHT22;10580;51.092;6.828;2023-05-14T00:57:32;10.80;1.00
20839;DHT22;10580;51.092;6.828;2023-05-14T00:59:58;10.70;1.00
20839;DHT22;10580;51.092;6.828;2023-05-14T01:02:23;10.60;1.00
20839;DHT22;10580;51.092;6.828;2023-05-14T01:04:50;10.60;1.00
20839;DHT22;10580;51.092;6.828;2023-05-14T01:07:38;10.60;1.00
20839;DHT22;10580;51.092;6.828;2023-05-14T01:15:36;10.50;1.00
20839;DHT22;10580;51.092;6.828;2023-05-14T01:18:08;10.50;1.00
20839;DHT22;10580;51.092;6.828;2023-05-14T01:20:34;10.50;1.00
20839;DHT22;10580;51.092;6.828;2023-05-14T01:23:01;10.50;1.00
20839;DHT22;10580;51.092;6.828;2023-05-14T01:25:27;10.40;1.00
20839;DHT22;10580;51.092;6.828;2023-05-14T01:30:49;10.40;1.00
20839;DHT22;10580;51.092;6.828;2023-05-14T01:33:17;10.40;1.00
20839;DHT22;10580;51.092;6.828;2023-05-14T01:35:43;10.30;1.00
20839;DHT22;10580;51.092;6.828;2023-05-14T01:38:14;10.30;1.00
20839;DHT22;10580;51.092;6.828;2023-05-14T01:40:43;10.30;1.00
20839;DHT22;10580;51.092;6.828;2023-05-14T01:43:09;10.20;1.00
20839;DHT22;10580;51.092;6.828;2023-05-14T01:45:36;10.20;1.00
20839;DHT22;10580;51.092;6.828;2023-05-14T01:48:03;10.20;1.00
20839;DHT22;10580;51.092;6.828;2023-05-14T01:50:29;10.10;1.00
20839;DHT22;10580;51.092;6.828;2023-05-14T01:52:55;10.10;1.00
20839;DHT22;10580;51.092;6.828;2023-05-14T01:55:24;10.00;1.00
20839;DHT22;10580;51.092;6.828;2023-05-14T01:57:53;10.00;99.90
20839;DHT22;10580;51.092;6.828;2023-05-14T02:00:19;10.00;99.90
20839;DHT22;10580;51.092;6.828;2023-05-14T02:02:45;9.90;99.90
20839;DHT22;10580;51.092;6.828;2023-05-14T02:05:11;9.90;99.90
20839;DHT22;10580;51.092;6.828;2023-05-14T02:07:37;9.90;99.90
20839;DHT22;10580;51.092;6.828;2023-05-14T02:10:03;9.90;99.90
20839;DHT22;10580;51.092;6.828;2023-05-14T02:12:29;9.80;99.90
20839;DHT22;10580;51.092;6.828;2023-05-14T02:14:55;9.80;99.90
20839;DHT22;10580;51.092;6.828;2023-05-14T02:17:20;9.80;99.90
20839;DHT22;10580;51.092;6.828;2023-05-14T02:19:46;9.80;99.90
20839;DHT22;10580;51.092;6.828;2023-05-14T02:22:12;9.80;99.90
20839;DHT22;10580;51.092;6.828;2023-05-14T02:24:37;9.80;99.90
20839;DHT22;10580;51.092;6.828;2023-05-14T02:27:03;9.80;99.90
20839;DHT22;10580;51.092;6.828;2023-05-14T02:29:29;9.80;99.90
20839;DHT22;10580;51.092;6.828;2023-05-14T02:31:55;9.70;99.90
20839;DHT22;10580;51.092;6.828;2023-05-14T02:34:20;9.70;99.90
20839;DHT22;10580;51.092;6.828;2023-05-14T02:36:46;9.70;99.90
20839;DHT22;10580;51.092;6.828;2023-05-14T02:39:11;9.60;99.90
20839;DHT22;10580;51.092;6.828;2023-05-14T02:41:37;9.60;99.90
20839;DHT22;10580;51.092;6.828;2023-05-14T02:44:03;9.60;99.90
20839;DHT22;10580;51.092;6.828;2023-05-14T02:46:30;9.60;99.90
20839;DHT22;10580;51.092;6.828;2023-05-14T02:48:55;9.60;99.90
20839;DHT22;10580;51.092;6.828;2023-05-14T02:51:21;9.60;99.90
20839;DHT22;10580;51.092;6.828;2023-05-14T02:53:47;9.60;99.90
20839;DHT22;10580;51.092;6.828;2023-05-14T02:56:13;9.50;99.90
20839;DHT22;10580;51.092;6.828;2023-05-14T02:58:38;9.50;99.90
20839;DHT22;10580;51.092;6.828;2023-05-14T03:01:04;9.50;99.90
20839;DHT22;10580;51.092;6.828;2023-05-14T03:03:30;9.50;99.90
20839;DHT22;10580;51.092;6.828;2023-05-14T03:05:55;9.50;99.90
20839;DHT22;10580;51.092;6.828;2023-05-14T03:08:21;9.50;99.90
20839;DHT22;10580;51.092;6.828;2023-05-14T03:10:47;9.50;99.90
20839;DHT22;10580;51.092;6.828;2023-05-14T03:13:12;9.40;99.90
20839;DHT22;10580;51.092;6.828;2023-05-14T03:15:42;9.40;99.90
20839;DHT22;10580;51.092;6.828;2023-05-14T03:18:08;9.40;99.90
20839;DHT22;10580;51.092;6.828;2023-05-14T03:20:33;9.40;1.00
20839;DHT22;10580;51.092;6.828;2023-05-14T03:22:59;9.40;1.00
20839;DHT22;10580;51.092;6.828;2023-05-14T03:25:25;9.40;1.00
20839;DHT22;10580;51.092;6.828;2023-05-14T03:27:50;9.40;1.00
20839;DHT22;10580;51.092;6.828;2023-05-14T03:30:16;9.40;99.90
20839;DHT22;10580;51.092;6.828;2023-05-14T03:32:42;9.30;99.90
20839;DHT22;10580;51.092;6.828;2023-05-14T03:35:07;9.30;99.90
20839;DHT22;10580;51.092;6.828;2023-05-14T03:37:33;9.30;99.90
20839;DHT22;10580;51.092;6.828;2023-05-14T03:39:59;9.30;99.90
20839;DHT22;10580;51.092;6.828;2023-05-14T03:42:24;9.20;99.90
20839;DHT22;10580;51.092;6.828;2023-05-14T03:44:50;9.20;99.90
20839;DHT22;10580;51.092;6.828;2023-05-14T03:47:15;9.20;99.90
20839;DHT22;10580;51.092;6.828;2023-05-14T03:49:41;9.10;99.90
20839;DHT22;10580;51.092;6.828;2023-05-14T03:52:06;9.20;99.90
20839;DHT22;10580;51.092;6.828;2023-05-14T03:54:32;9.10;99.90
20839;DHT22;10580;51.092;6.828;2023-05-14T03:56:57;9.10;99.90
20839;DHT22;10580;51.092;6.828;2023-05-14T03:59:23;9.10;99.90
20839;DHT22;10580;51.092;6.828;2023-05-14T04:01:49;9.10;99.90
20839;DHT22;10580;51.092;6.828;2023-05-14T04:04:15;9.20;99.90
20839;DHT22;10580;51.092;6.828;2023-05-14T04:06:40;9.20;99.90
20839;DHT22;10580;51.092;6.828;2023-05-14T04:09:06;9.20;99.90
20839;DHT22;10580;51.092;6.828;2023-05-14T04:11:31;9.20;99.90
20839;DHT22;10580;51.092;6.828;2023-05-14T04:13:57;9.30;99.90
20839;DHT22;10580;51.092;6.828;2023-05-14T04:16:22;9.20;99.90
20839;DHT22;10580;51.092;6.828;2023-05-14T04:18:48;9.30;99.90
20839;DHT22;10580;51.092;6.828;2023-05-14T04:21:13;9.30;99.90
20839;DHT22;10580;51.092;6.828;2023-05-14T04:23:39;9.40;99.90
20839;DHT22;10580;51.092;6.828;2023-05-14T04:26:05;9.40;99.90
20839;DHT22;10580;51.092;6.828;2023-05-14T04:28:30;9.40;99.90
20839;DHT22;10580;51.092;6.828;2023-05-14T04:30:56;9.50;99.90
20839;DHT22;10580;51.092;6.828;2023-05-14T04:33:22;9.60;99.90
20839;DHT22;10580;51.092;6.828;2023-05-14T04:35:47;9.80;99.90
20839;DHT22;10580;51.092;6.828;2023-05-14T04:38:13;10.00;1.00
20839;DHT22;10580;51.092;6.828;2023-05-14T04:40:39;10.10;1.00
20839;DHT22;10580;51.092;6.828;2023-05-14T04:43:06;10.10;99.90
20839;DHT22;10580;51.092;6.828;2023-05-14T04:45:32;10.40;1.00
20839;DHT22;10580;51.092;6.828;2023-05-14T04:47:57;10.60;1.00
20839;DHT22;10580;51.092;6.828;2023-05-14T04:50:23;10.80;99.90
20839;DHT22;10580;51.092;6.828;2023-05-14T04:52:48;11.30;99.90
20839;DHT22;10580;51.092;6.828;2023-05-14T04:55:14;12.20;1.00
20839;DHT22;10580;51.092;6.828;2023-05-14T04:57:40;13.30;74.30
20839;DHT22;10580;51.092;6.828;2023-05-14T05:00:06;14.50;1.00
20839;DHT22;10580;51.092;6.828;2023-05-14T05:02:33;15.60;1.00
20839;DHT22;10580;51.092;6.828;2023-05-14T05:04:59;16.60;1.00
20839;DHT22;10580;51.092;6.828;2023-05-14T05:07:25;17.50;99.90
20839;DHT22;10580;51.092;6.828;2023-05-14T05:09:50;18.10;99.90
20839;DHT22;10580;51.092;6.828;2023-05-14T05:12:16;18.80;99.90
20839;DHT22;10580;51.092;6.828;2023-05-14T05:14:41;19.30;99.90
20839;DHT22;10580;51.092;6.828;2023-05-14T05:17:07;19.80;99.90
20839;DHT22;10580;51.092;6.828;2023-05-14T05:19:32;20.20;99.90
20839;DHT22;10580;51.092;6.828;2023-05-14T05:21:58;20.70;99.90
20839;DHT22;10580;51.092;6.828;2023-05-14T05:24:24;21.20;99.90
20839;DHT22;10580;51.092;6.828;2023-05-14T05:26:49;21.60;99.90
20839;DHT22;10580;51.092;6.828;2023-05-14T05:29:16;21.70;99.90
20839;DHT22;10580;51.092;6.828;2023-05-14T05:31:41;21.70;99.90
20839;DHT22;10580;51.092;6.828;2023-05-14T05:34:07;21.40;99.90
20839;DHT22;10580;51.092;6.828;2023-05-14T05:36:33;21.30;99.90
20839;DHT22;10580;51.092;6.828;2023-05-14T05:38:58;20.80;99.90
20839;DHT22;10580;51.092;6.828;2023-05-14T05:41:24;20.70;99.90
20839;DHT22;10580;51.092;6.828;2023-05-14T05:43:51;19.80;99.90
20839;DHT22;10580;51.092;6.828;2023-05-14T05:46:16;18.80;99.90
20839;DHT22;10580;51.092;6.828;2023-05-14T05:48:42;17.50;99.90
20839;DHT22;10580;51.092;6.828;2023-05-14T05:51:07;16.60;99.90
20839;DHT22;10580;51.092;6.828;2023-05-14T05:53:33;15.90;99.90
20839;DHT22;10580;51.092;6.828;2023-05-14T05:55:58;15.70;99.90
20839;DHT22;10580;51.092;6.828;2023-05-14T05:58:24;15.80;99.90
20839;DHT22;10580;51.092;6.828;2023-05-14T06:00:50;16.10;99.90
20839;DHT22;10580;51.092;6.828;2023-05-14T06:03:16;17.10;99.90
20839;DHT22;10580;51.092;6.828;2023-05-14T06:05:41;18.60;99.90
20839;DHT22;10580;51.092;6.828;2023-05-14T06:08:07;20.20;99.90
20839;DHT22;10580;51.092;6.828;2023-05-14T06:10:32;21.40;99.90
20839;DHT22;10580;51.092;6.828;2023-05-14T06:12:59;22.40;99.90
20839;DHT22;10580;51.092;6.828;2023-05-14T06:15:24;23.00;99.90
20839;DHT22;10580;51.092;6.828;2023-05-14T06:17:50;23.10;99.90
20839;DHT22;10580;51.092;6.828;2023-05-14T06:20:15;23.70;99.90
20839;DHT22;10580;51.092;6.828;2023-05-14T06:22:41;24.10;99.90
20839;DHT22;10580;51.092;6.828;2023-05-14T06:25:07;24.20;99.90
20839;DHT22;10580;51.092;6.828;2023-05-14T06:27:33;24.60;99.90
20839;DHT22;10580;51.092;6.828;2023-05-14T06:29:58;24.80;99.90
20839;DHT22;10580;51.092;6.828;2023-05-14T06:32:24;24.30;99.90
20839;DHT22;10580;51.092;6.828;2023-05-14T06:34:49;24.20;99.90
20839;DHT22;10580;51.092;6.828;2023-05-14T06:37:15;24.50;99.90
20839;DHT22;10580;51.092;6.828;2023-05-14T06:39:41;24.90;99.90
20839;DHT22;10580;51.092;6.828;2023-05-14T06:42:16;24.90;99.90
20839;DHT22;10580;51.092;6.828;2023-05-14T06:44:43;25.00;99.90
20839;DHT22;10580;51.092;6.828;2023-05-14T06:47:08;25.40;99.90
20839;DHT22;10580;51.092;6.828;2023-05-14T06:49:34;25.40;99.90
20839;DHT22;10580;51.092;6.828;2023-05-14T06:52:00;25.60;99.90
20839;DHT22;10580;51.092;6.828;2023-05-14T06:54:26;25.70;99.90
20839;DHT22;10580;51.092;6.828;2023-05-14T06:56:52;25.80;99.90
20839;DHT22;10580;51.092;6.828;2023-05-14T06:59:17;25.60;99.90
20839;DHT22;10580;51.092;6.828;2023-05-14T07:01:43;25.60;99.90
20839;DHT22;10580;51.092;6.828;2023-05-14T07:04:08;25.60;99.90
20839;DHT22;10580;51.092;6.828;2023-05-14T07:06:34;25.70;99.90
20839;DHT22;10580;51.092;6.828;2023-05-14T07:09:00;25.70;99.90
20839;DHT22;10580;51.092;6.828;2023-05-14T07:11:26;25.00;90.90
20839;DHT22;10580;51.092;6.828;2023-05-14T07:13:51;25.00;93.20
20839;DHT22;10580;51.092;6.828;2023-05-14T07:16:17;25.20;88.20
20839;DHT22;10580;51.092;6.828;2023-05-14T07:18:43;25.30;93.40
20839;DHT22;10580;51.092;6.828;2023-05-14T07:21:10;25.40;92.40
20839;DHT22;10580;51.092;6.828;2023-05-14T07:23:35;25.40;97.50
20839;DHT22;10580;51.092;6.828;2023-05-14T07:26:03;25.50;90.80
20839;DHT22;10580;51.092;6.828;2023-05-14T07:28:29;25.00;64.80
20839;DHT22;10580;51.092;6.828;2023-05-14T07:30:54;25.10;98.90
20839;DHT22;10580;51.092;6.828;2023-05-14T07:33:20;25.40;99.80
20839;DHT22;10580;51.092;6.828;2023-05-14T07:35:46;25.70;81.90
20839;DHT22;10580;51.092;6.828;2023-05-14T07:38:12;25.80;91.50
20839;DHT22;10580;51.092;6.828;2023-05-14T07:40:37;25.60;88.50
20839;DHT22;10580;51.092;6.828;2023-05-14T07:43:03;25.30;84.80
20839;DHT22;10580;51.092;6.828;2023-05-14T07:45:28;23.70;30.00
20839;DHT22;10580;51.092;6.828;2023-05-14T07:47:54;24.20;22.50
20839;DHT22;10580;51.092;6.828;2023-05-14T07:50:20;24.70;53.30
20839;DHT22;10580;51.092;6.828;2023-05-14T07:52:46;25.10;41.10
20839;DHT22;10580;51.092;6.828;2023-05-14T07:55:12;24.30;1.00
20839;DHT22;10580;51.092;6.828;2023-05-14T07:57:38;24.10;1.00
20839;DHT22;10580;51.092;6.828;2023-05-14T08:00:04;24.20;4.40
20839;DHT22;10580;51.092;6.828;2023-05-14T08:02:32;24.30;1.00
20839;DHT22;10580;51.092;6.828;2023-05-14T08:04:58;24.60;10.90
20839;DHT22;10580;51.092;6.828;2023-05-14T08:07:23;24.40;1.00
20839;DHT22;10580;51.092;6.828;2023-05-14T08:09:49;24.50;1.00
20839;DHT22;10580;51.092;6.828;2023-05-14T08:12:15;24.90;9.20
20839;DHT22;10580;51.092;6.828;2023-05-14T08:14:41;25.40;20.00
20839;DHT22;10580;51.092;6.828;2023-05-14T08:17:06;25.40;12.10
20839;DHT22;10580;51.092;6.828;2023-05-14T08:19:32;25.50;34.60
20839;DHT22;10580;51.092;6.828;2023-05-14T08:22:00;25.40;28.40
20839;DHT22;10580;51.092;6.828;2023-05-14T08:24:25;25.40;25.20
20839;DHT22;10580;51.092;6.828;2023-05-14T08:26:51;25.60;19.80
20839;DHT22;10580;51.092;6.828;2023-05-14T08:29:17;25.80;54.70
20839;DHT22;10580;51.092;6.828;2023-05-14T08:31:43;25.70;20.50
20839;DHT22;10580;51.092;6.828;2023-05-14T08:34:11;25.20;1.00
20839;DHT22;10580;51.092;6.828;2023-05-14T08:36:38;25.40;5.90
20839;DHT22;10580;51.092;6.828;2023-05-14T08:39:03;25.40;1.00
20839;DHT22;10580;51.092;6.828;2023-05-14T08:41:29;25.50;1.00
20839;DHT22;10580;51.092;6.828;2023-05-14T08:44:18;25.60;1.00
20839;DHT22;10580;51.092;6.828;2023-05-14T08:46:44;25.80;1.00
20839;DHT22;10580;51.092;6.828;2023-05-14T08:49:21;25.70;1.00
20839;DHT22;10580;51.092;6.828;2023-05-14T08:51:49;25.60;1.00
20839;DHT22;10580;51.092;6.828;2023-05-14T08:54:15;25.60;1.00
20839;DHT22;10580;51.092;6.828;2023-05-14T08:56:43;25.80;1.00
20839;DHT22;10580;51.092;6.828;2023-05-14T08:59:11;25.70;1.00
20839;DHT22;10580;51.092;6.828;2023-05-14T09:01:37;25.60;1.00
20839;DHT22;10580;51.092;6.828;2023-05-14T09:04:07;25.00;1.00
20839;DHT22;10580;51.092;6.828;2023-05-14T09:06:35;24.90;1.00
20839;DHT22;10580;51.092;6.828;2023-05-14T09:09:04;25.00;1.00
20839;DHT22;10580;51.092;6.828;2023-05-14T09:11:30;24.90;1.00
20839;DHT22;10580;51.092;6.828;2023-05-14T09:13:55;24.90;1.00
20839;DHT22;10580;51.092;6.828;2023-05-14T09:16:22;25.10;1.00
20839;DHT22;10580;51.092;6.828;2023-05-14T09:18:50;25.10;1.00
20839;DHT22;10580;51.092;6.828;2023-05-14T09:21:17;25.10;1.00
20839;DHT22;10580;51.092;6.828;2023-05-14T09:23:43;25.20;1.00
20839;DHT22;10580;51.092;6.828;2023-05-14T09:26:10;25.00;1.00
20839;DHT22;10580;51.092;6.828;2023-05-14T09:28:39;25.20;1.00
20839;DHT22;10580;51.092;6.828;2023-05-14T09:31:08;25.20;1.00
20839;DHT22;10580;51.092;6.828;2023-05-14T09:33:34;25.50;1.00
20839;DHT22;10580;51.092;6.828;2023-05-14T09:36:00;25.40;1.00
20839;DHT22;10580;51.092;6.828;2023-05-14T09:38:30;25.10;1.00
20839;DHT22;10580;51.092;6.828;2023-05-14T09:40:57;25.10;1.00
20839;DHT22;10580;51.092;6.828;2023-05-14T09:43:23;24.80;1.00
20839;DHT22;10580;51.092;6.828;2023-05-14T09:45:48;24.80;1.00
20839;DHT22;10580;51.092;6.828;2023-05-14T09:48:14;24.90;1.00
20839;DHT22;10580;51.092;6.828;2023-05-14T09:50:44;24.80;1.00
20839;DHT22;10580;51.092;6.828;2023-05-14T09:53:10;24.30;1.00
20839;DHT22;10580;51.092;6.828;2023-05-14T09:55:48;24.60;1.00
20839;DHT22;10580;51.092;6.828;2023-05-14T09:58:14;24.70;1.00
20839;DHT22;10580;51.092;6.828;2023-05-14T10:00:44;24.90;1.00
20839;DHT22;10580;51.092;6.828;2023-05-14T10:03:12;24.90;1.00
20839;DHT22;10580;51.092;6.828;2023-05-14T10:09:03;24.80;1.00
20839;DHT22;10580;51.092;6.828;2023-05-14T10:24:40;25.20;1.00
20839;DHT22;10580;51.092;6.828;2023-05-14T10:30:09;24.70;1.00
20839;DHT22;10580;51.092;6.828;2023-05-14T10:32:37;24.40;1.00
20839;DHT22;10580;51.092;6.828;2023-05-14T10:38:44;23.40;1.00
20839;DHT22;10580;51.092;6.828;2023-05-14T10:44:49;22.70;1.00
20839;DHT22;10580;51.092;6.828;2023-05-14T10:47:15;22.40;1.00
20839;DHT22;10580;51.092;6.828;2023-05-14T10:49:43;22.10;1.00
20839;DHT22;10580;51.092;6.828;2023-05-14T10:52:11;22.30;1.00
20839;DHT22;10580;51.092;6.828;2023-05-14T10:54:37;22.70;1.00
20839;DHT22;10580;51.092;6.828;2023-05-14T10:57:03;23.30;1.00
20839;DHT22;10580;51.092;6.828;2023-05-14T10:59:29;23.50;1.00
20839;DHT22;10580;51.092;6.828;2023-05-14T11:08:30;24.50;1.00
20839;DHT22;10580;51.092;6.828;2023-05-14T11:11:37;24.60;1.00
20839;DHT22;10580;51.092;6.828;2023-05-14T11:51:29;23.40;1.00
20839;DHT22;10580;51.092;6.828;2023-05-14T12:00:25;23.40;1.00
20839;DHT22;10580;51.092;6.828;2023-05-14T12:02:51;23.70;1.00
20839;DHT22;10580;51.092;6.828;2023-05-14T12:05:17;23.90;1.00
20839;DHT22;10580;51.092;6.828;2023-05-14T12:07:46;24.20;1.00
20839;DHT22;10580;51.092;6.828;2023-05-14T12:13:35;24.90;1.00
20839;DHT22;10580;51.092;6.828;2023-05-14T12:16:01;25.40;1.00
20839;DHT22;10580;51.092;6.828;2023-05-14T12:23:38;25.10;1.00
20839;DHT22;10580;51.092;6.828;2023-05-14T12:29:26;25.80;1.00
20839;DHT22;10580;51.092;6.828;2023-05-14T12:31:52;26.30;1.00
20839;DHT22;10580;51.092;6.828;2023-05-14T12:34:52;26.30;1.00
20839;DHT22;10580;51.092;6.828;2023-05-14T12:37:17;26.10;1.00
20839;DHT22;10580;51.092;6.828;2023-05-14T12:39:43;25.90;1.00
20839;DHT22;10580;51.092;6.828;2023-05-14T12:42:09;25.80;1.00
20839;DHT22;10580;51.092;6.828;2023-05-14T12:47:56;25.50;1.00
20839;DHT22;10580;51.092;6.828;2023-05-14T12:50:22;25.40;1.00
20839;DHT22;10580;51.092;6.828;2023-05-14T12:56:01;25.60;1.00
20839;DHT22;10580;51.092;6.828;2023-05-14T12:58:27;25.80;1.00
20839;DHT22;10580;51.092;6.828;2023-05-14T13:00:53;26.00;1.00
20839;DHT22;10580;51.092;6.828;2023-05-14T13:03:19;25.70;1.00
20839;DHT22;10580;51.092;6.828;2023-05-14T13:05:45;25.80;1.00
20839;DHT22;10580;51.092;6.828;2023-05-14T13:08:10;25.70;1.00
20839;DHT22;10580;51.092;6.828;2023-05-14T13:10:39;25.20;1.00
20839;DHT22;10580;51.092;6.828;2023-05-14T13:13:04;25.40;1.00
20839;DHT22;10580;51.092;6.828;2023-05-14T13:15:30;25.70;1.00
20839;DHT22;10580;51.092;6.828;2023-05-14T13:17:58;26.00;1.00
20839;DHT22;10580;51.092;6.828;2023-05-14T13:20:23;25.90;1.00
20839;DHT22;10580;51.092;6.828;2023-05-14T13:22:51;26.00;1.00
20839;DHT22;10580;51.092;6.828;2023-05-14T13:25:17;25.80;1.00
20839;DHT22;10580;51.092;6.828;2023-05-14T13:27:42;25.60;1.00
20839;DHT22;10580;51.092;6.828;2023-05-14T13:30:08;25.50;1.00
20839;DHT22;10580;51.092;6.828;2023-05-14T13:32:34;25.20;1.00
20839;DHT22;10580;51.092;6.828;2023-05-14T13:34:59;25.10;1.00
20839;DHT22;10580;51.092;6.828;2023-05-14T13:37:25;25.60;1.00
20839;DHT22;10580;51.092;6.828;2023-05-14T13:39:51;26.30;1.00
20839;DHT22;10580;51.092;6.828;2023-05-14T13:42:16;26.70;1.00
20839;DHT22;10580;51.092;6.828;2023-05-14T13:44:42;27.10;1.00
20839;DHT22;10580;51.092;6.828;2023-05-14T13:47:08;27.10;1.00
20839;DHT22;10580;51.092;6.828;2023-05-14T13:49:33;27.30;1.00
20839;DHT22;10580;51.092;6.828;2023-05-14T13:51:59;27.30;1.00
20839;DHT22;10580;51.092;6.828;2023-05-14T13:54:24;27.10;1.00
20839;DHT22;10580;51.092;6.828;2023-05-14T13:56:50;27.10;1.00
20839;DHT22;10580;51.092;6.828;2023-05-14T13:59:16;26.40;1.00
20839;DHT22;10580;51.092;6.828;2023-05-14T14:01:42;26.10;1.00
20839;DHT22;10580;51.092;6.828;2023-05-14T14:04:09;25.50;1.00
20839;DHT22;10580;51.092;6.828;2023-05-14T14:06:57;24.80;1.00
20839;DHT22;10580;51.092;6.828;2023-05-14T14:09:28;24.60;1.00
20839;DHT22;10580;51.092;6.828;2023-05-14T14:12:24;24.40;1.00
20839;DHT22;10580;51.092;6.828;2023-05-14T14:15:00;24.20;1.00
20839;DHT22;10580;51.092;6.828;2023-05-14T14:17:28;24.40;1.00
20839;DHT22;10580;51.092;6.828;2023-05-14T14:19:54;24.60;1.00
20839;DHT22;10580;51.092;6.828;2023-05-14T14:22:20;24.80;1.00
20839;DHT22;10580;51.092;6.828;2023-05-14T14:24:48;25.00;1.00
20839;DHT22;10580;51.092;6.828;2023-05-14T14:27:22;24.90;1.00
20839;DHT22;10580;51.092;6.828;2023-05-14T14:29:55;24.80;1.00
20839;DHT22;10580;51.092;6.828;2023-05-14T14:32:21;24.70;1.00
20839;DHT22;10580;51.092;6.828;2023-05-14T14:34:46;24.50;1.00
20839;DHT22;10580;51.092;6.828;2023-05-14T14:43:50;23.30;1.00
20839;DHT22;10580;51.092;6.828;2023-05-14T14:46:15;23.30;1.00
20839;DHT22;10580;51.092;6.828;2023-05-14T14:48:57;23.60;1.00
20839;DHT22;10580;51.092;6.828;2023-05-14T14:51:25;24.00;1.00
20839;DHT22;10580;51.092;6.828;2023-05-14T14:53:53;24.20;1.00
20839;DHT22;10580;51.092;6.828;2023-05-14T14:56:35;24.00;1.00
20839;DHT22;10580;51.092;6.828;2023-05-14T14:59:01;23.60;1.00
20839;DHT22;10580;51.092;6.828;2023-05-14T15:01:42;23.10;1.00
20839;DHT22;10580;51.092;6.828;2023-05-14T15:04:08;22.70;1.00
20839;DHT22;10580;51.092;6.828;2023-05-14T15:06:53;22.40;1.00
20839;DHT22;10580;51.092;6.828;2023-05-14T15:09:22;22.00;1.00
20839;DHT22;10580;51.092;6.828;2023-05-14T15:11:48;21.90;1.00
20839;DHT22;10580;51.092;6.828;2023-05-14T15:14:14;21.90;1.00
20839;DHT22;10580;51.092;6.828;2023-05-14T15:16:40;21.70;1.00
20839;DHT22;10580;51.092;6.828;2023-05-14T15:19:11;21.60;1.00
20839;DHT22;10580;51.092;6.828;2023-05-14T15:21:44;21.60;1.00
20839;DHT22;10580;51.092;6.828;2023-05-14T15:24:11;21.60;1.00
20839;DHT22;10580;51.092;6.828;2023-05-14T15:26:44;21.90;1.00
20839;DHT22;10580;51.092;6.828;2023-05-14T15:29:10;22.30;1.00
20839;DHT22;10580;51.092;6.828;2023-05-14T15:31:44;22.60;1.00
20839;DHT22;10580;51.092;6.828;2023-05-14T15:34:48;22.70;1.00
20839;DHT22;10580;51.092;6.828;2023-05-14T15:37:40;22.40;1.00
20839;DHT22;10580;51.092;6.828;2023-05-14T15:40:06;22.10;1.00
20839;DHT22;10580;51.092;6.828;2023-05-14T15:42:37;22.10;1.00
20839;DHT22;10580;51.092;6.828;2023-05-14T15:45:03;22.00;1.00
20839;DHT22;10580;51.092;6.828;2023-05-14T15:47:29;21.90;1.00
20839;DHT22;10580;51.092;6.828;2023-05-14T15:49:55;21.90;1.00
20839;DHT22;10580;51.092;6.828;2023-05-14T15:52:21;21.80;1.00
20839;DHT22;10580;51.092;6.828;2023-05-14T15:54:47;21.80;1.00
20839;DHT22;10580;51.092;6.828;2023-05-14T15:57:13;21.60;1.00
20839;DHT22;10580;51.092;6.828;2023-05-14T15:59:51;21.40;1.00
20839;DHT22;10580;51.092;6.828;2023-05-14T16:03:01;21.40;1.00
20839;DHT22;10580;51.092;6.828;2023-05-14T16:05:41;21.30;1.00
20839;DHT22;10580;51.092;6.828;2023-05-14T16:08:09;21.20;1.00
20839;DHT22;10580;51.092;6.828;2023-05-14T16:10:34;21.10;1.00
20839;DHT22;10580;51.092;6.828;2023-05-14T16:13:00;21.10;1.00
20839;DHT22;10580;51.092;6.828;2023-05-14T16:15:26;21.10;1.00
20839;DHT22;10580;51.092;6.828;2023-05-14T16:17:51;21.00;1.00
20839;DHT22;10580;51.092;6.828;2023-05-14T16:20:17;21.00;1.00
20839;DHT22;10580;51.092;6.828;2023-05-14T16:22:42;21.00;1.00
20839;DHT22;10580;51.092;6.828;2023-05-14T16:25:09;20.90;1.00
20839;DHT22;10580;51.092;6.828;2023-05-14T16:27:34;20.80;1.00
20839;DHT22;10580;51.092;6.828;2023-05-14T16:30:00;20.90;1.00
20839;DHT22;10580;51.092;6.828;2023-05-14T16:32:25;20.90;1.00
20839;DHT22;10580;51.092;6.828;2023-05-14T16:34:52;20.90;1.00
20839;DHT22;10580;51.092;6.828;2023-05-14T16:37:20;21.00;1.00
20839;DHT22;10580;51.092;6.828;2023-05-14T16:39:46;21.00;1.00
20839;DHT22;10580;51.092;6.828;2023-05-14T16:42:32;21.00;1.00
20839;DHT22;10580;51.092;6.828;2023-05-14T16:45:05;21.10;1.00
20839;DHT22;10580;51.092;6.828;2023-05-14T16:47:57;21.20;1.00
20839;DHT22;10580;51.092;6.828;2023-05-14T16:51:09;21.10;1.00
20839;DHT22;10580;51.092;6.828;2023-05-14T16:56:49;21.00;1.00
20839;DHT22;10580;51.092;6.828;2023-05-14T17:02:28;20.80;1.00
20839;DHT22;10580;51.092;6.828;2023-05-14T17:05:03;20.70;1.00
20839;DHT22;10580;51.092;6.828;2023-05-14T17:07:32;20.70;1.00
20839;DHT22;10580;51.092;6.828;2023-05-14T17:09:57;20.70;1.00
20839;DHT22;10580;51.092;6.828;2023-05-14T17:12:24;20.70;1.00
20839;DHT22;10580;51.092;6.828;2023-05-14T17:14:51;20.60;1.00
20839;DHT22;10580;51.092;6.828;2023-05-14T17:17:16;20.50;1.00
20839;DHT22;10580;51.092;6.828;2023-05-14T17:19:43;20.50;1.00
20839;DHT22;10580;51.092;6.828;2023-05-14T17:22:09;20.50;1.00
20839;DHT22;10580;51.092;6.828;2023-05-14T17:24:35;20.50;1.00
20839;DHT22;10580;51.092;6.828;2023-05-14T17:27:04;20.40;1.00
20839;DHT22;10580;51.092;6.828;2023-05-14T17:29:30;20.50;1.00
20839;DHT22;10580;51.092;6.828;2023-05-14T17:31:56;20.40;1.00
20839;DHT22;10580;51.092;6.828;2023-05-14T17:34:21;20.50;1.00
20839;DHT22;10580;51.092;6.828;2023-05-14T17:56:08;19.90;1.00
20839;DHT22;10580;51.092;6.828;2023-05-14T18:02:20;19.80;1.00
20839;DHT22;10580;51.092;6.828;2023-05-14T18:04:46;19.80;1.00